Time;durP1;ratioP1;P1;durP2;ratioP2;P2;SDS_P1;SDS_P2;PMS_P1;PMS_P2;Temp;Humidity;BMP_temperature;BMP_pressure;BME280_temperature;BME280_humidity;BME280_pressure;Samples;Min_cycle;Max_cycle;Signal;HPM_P1;HPM_P2
2023/01/24 00:00:57;;;;;;;9.82;5.22;;;3.10;99.90;;;;;;5035617;28;20237;-83
2023/01/24 00:03:43;;;;;;;9.93;5.05;;;3.10;99.90;;;;;;5036391;28;20091;-84
2023/01/24 00:06:29;;;;;;;9.63;5.15;;;3.10;99.90;;;;;;5033107;28;20088;-81
2023/01/24 00:09:15;;;;;;;10.65;5.38;;;3.10;99.90;;;;;;5033040;28;20103;-82
2023/01/24 00:12:01;;;;;;;10.80;6.05;;;3.10;99.90;;;;;;5051302;28;20072;-79
2023/01/24 00:14:48;;;;;;;9.68;5.45;;;3.10;99.90;;;;;;5052985;28;20057;-83
2023/01/24 00:17:34;;;;;;;11.10;6.45;;;3.10;99.90;;;;;;5032592;28;20084;-82
2023/01/24 00:20:20;;;;;;;10.63;5.82;;;3.10;99.90;;;;;;5050273;28;20056;-82
2023/01/24 00:23:06;;;;;;;11.40;5.90;;;3.10;99.90;;;;;;5050401;28;20072;-82
2023/01/24 00:25:52;;;;;;;11.05;6.35;;;3.10;99.90;;;;;;5032199;28;20136;-81
2023/01/24 00:28:39;;;;;;;9.07;4.85;;;3.20;99.90;;;;;;5049380;28;20075;-79
2023/01/24 00:31:25;;;;;;;10.88;5.55;;;3.20;99.90;;;;;;5052655;28;20110;-79
2023/01/24 00:34:11;;;;;;;9.45;5.80;;;3.20;99.90;;;;;;5032641;28;20057;-82
2023/01/24 00:36:57;;;;;;;10.30;4.93;;;3.20;99.90;;;;;;5035967;28;20052;-80
2023/01/24 00:39:43;;;;;;;11.82;6.15;;;3.20;99.90;;;;;;5049821;28;20401;-78
2023/01/24 00:42:29;;;;;;;11.05;5.47;;;3.20;99.90;;;;;;5049693;28;20072;-81
2023/01/24 00:45:15;;;;;;;9.70;6.00;;;3.20;99.90;;;;;;5050003;28;20041;-80
2023/01/24 00:48:02;;;;;;;9.70;6.55;;;3.20;99.90;;;;;;5050977;28;20087;-77
2023/01/24 00:50:48;;;;;;;9.65;5.95;;;3.20;99.90;;;;;;5050492;28;20049;-79
2023/01/24 00:53:35;;;;;;;12.18;6.63;;;3.20;99.90;;;;;;5038977;28;20128;-83
2023/01/24 00:56:21;;;;;;;10.80;6.13;;;3.20;99.90;;;;;;5031994;28;20045;-81
2023/01/24 00:59:07;;;;;;;10.30;6.47;;;3.20;99.90;;;;;;5050372;28;20440;-81
2023/01/24 01:01:53;;;;;;;11.02;6.30;;;3.20;99.90;;;;;;5051004;28;20053;-81
2023/01/24 01:04:39;;;;;;;10.23;5.88;;;3.20;99.90;;;;;;5051246;28;20056;-82
2023/01/24 01:07:25;;;;;;;11.45;7.25;;;3.20;99.90;;;;;;5019212;28;20049;-84
2023/01/24 01:10:12;;;;;;;12.00;6.97;;;3.20;99.90;;;;;;5036107;28;20049;-77
2023/01/24 01:12:58;;;;;;;12.40;7.28;;;3.30;99.90;;;;;;5049159;28;20049;-78
2023/01/24 01:15:44;;;;;;;13.48;7.32;;;3.20;99.90;;;;;;5031899;28;20151;-77
2023/01/24 01:18:31;;;;;;;16.45;7.88;;;3.20;99.90;;;;;;5052445;28;20058;-77
2023/01/24 01:21:19;;;;;;;14.70;7.90;;;3.30;99.90;;;;;;5051018;28;20052;-84
2023/01/24 01:24:05;;;;;;;15.40;8.38;;;3.20;99.90;;;;;;5051435;28;20056;-80
2023/01/24 01:26:51;;;;;;;15.70;9.18;;;3.30;99.90;;;;;;5035285;28;20091;-82
2023/01/24 01:29:37;;;;;;;16.67;9.85;;;3.30;99.90;;;;;;5020623;28;20056;-82
2023/01/24 01:32:23;;;;;;;16.15;8.55;;;3.30;99.90;;;;;;5054044;28;20049;-83
2023/01/24 01:35:09;;;;;;;16.08;8.75;;;3.30;99.90;;;;;;5054034;28;20459;-83
2023/01/24 01:37:55;;;;;;;18.98;9.32;;;3.20;99.90;;;;;;5054594;28;20092;-77
2023/01/24 01:40:42;;;;;;;17.50;9.30;;;3.20;99.90;;;;;;5054306;28;20405;-77
2023/01/24 01:43:29;;;;;;;19.77;10.25;;;3.20;99.90;;;;;;5054482;28;20053;-83
2023/01/24 01:46:18;;;;;;;19.63;10.70;;;3.20;99.90;;;;;;5052854;28;20382;-82
2023/01/24 01:49:06;;;;;;;15.80;9.40;;;3.20;99.90;;;;;;5054151;28;20049;-84
2023/01/24 01:51:57;;;;;;;16.48;8.77;;;3.20;99.90;;;;;;5054621;28;20435;-84
2023/01/24 01:54:45;;;;;;;18.67;10.07;;;3.20;99.90;;;;;;5053973;28;20564;-86
2023/01/24 01:57:33;;;;;;;18.58;9.25;;;3.20;99.90;;;;;;5053537;28;20049;-79
2023/01/24 02:00:27;;;;;;;17.65;9.45;;;3.20;99.90;;;;;;5054367;28;20049;-78
2023/01/24 02:06:59;;;;;;;19.60;10.52;;;3.20;99.90;;;;;;5054252;28;20160;-83
2023/01/24 02:09:48;;;;;;;16.10;8.98;;;3.20;99.90;;;;;;5052716;28;20063;-81
2023/01/24 02:12:44;;;;;;;15.48;8.02;;;3.20;99.90;;;;;;5036167;28;20492;-79
2023/01/24 02:18:38;;;;;;;12.45;6.88;;;3.20;99.90;;;;;;5053452;28;20493;-82
2023/01/24 02:21:24;;;;;;;14.98;8.85;;;3.20;99.90;;;;;;5053478;28;20055;-78
2023/01/24 02:24:25;;;;;;;16.15;8.50;;;3.20;99.90;;;;;;5056361;28;20421;-79
2023/01/24 02:27:11;;;;;;;18.05;9.63;;;3.20;99.90;;;;;;5054196;28;20413;-83
2023/01/24 02:29:58;;;;;;;15.70;9.27;;;3.20;99.90;;;;;;5051687;28;20298;-79
2023/01/24 02:32:44;;;;;;;20.63;11.07;;;3.20;99.90;;;;;;5053850;28;20088;-82
2023/01/24 02:35:32;;;;;;;18.25;10.32;;;3.20;99.90;;;;;;5051963;28;20048;-85
2023/01/24 02:38:25;;;;;;;20.55;11.05;;;3.20;99.90;;;;;;5052248;28;20497;-79
2023/01/24 02:41:13;;;;;;;19.08;10.05;;;3.20;99.90;;;;;;5053485;28;20157;-83
2023/01/24 02:44:04;;;;;;;17.77;10.13;;;3.20;99.90;;;;;;5052706;28;20045;-83
2023/01/24 02:46:50;;;;;;;20.67;10.73;;;3.20;99.90;;;;;;5053053;28;20045;-77
2023/01/24 02:49:36;;;;;;;16.30;8.90;;;3.20;99.90;;;;;;5050956;28;20487;-83
2023/01/24 02:55:26;;;;;;;17.33;9.68;;;3.20;99.90;;;;;;5035462;28;20049;-79
2023/01/24 02:58:13;;;;;;;17.05;9.43;;;3.20;99.90;;;;;;5052856;28;20053;-79
2023/01/24 03:00:59;;;;;;;21.58;9.60;;;3.20;99.90;;;;;;5054592;28;20048;-79
2023/01/24 03:03:46;;;;;;;20.33;9.85;;;3.20;99.90;;;;;;5052366;28;20052;-78
2023/01/24 03:06:32;;;;;;;16.95;9.35;;;3.20;99.90;;;;;;5052599;28;20045;-84
2023/01/24 03:09:18;;;;;;;17.15;9.57;;;3.20;99.90;;;;;;5052446;28;20048;-82
2023/01/24 03:36:44;;;;;;;15.90;8.20;;;3.20;99.90;;;;;;5052624;28;20088;-78
2023/01/24 03:42:36;;;;;;;16.08;8.95;;;3.20;99.90;;;;;;5051987;28;20084;-81
2023/01/24 03:45:24;;;;;;;17.33;8.95;;;3.20;99.90;;;;;;5051297;28;20417;-80
2023/01/24 03:48:13;;;;;;;17.20;9.00;;;3.20;99.90;;;;;;5050413;28;20045;-78
2023/01/24 03:54:04;;;;;;;16.75;8.45;;;3.20;99.90;;;;;;5051125;28;20045;-79
2023/01/24 03:56:50;;;;;;;16.73;8.80;;;3.20;99.90;;;;;;5050044;28;20045;-78
2023/01/24 03:59:36;;;;;;;16.88;9.07;;;3.20;99.90;;;;;;5053345;28;20520;-78
2023/01/24 04:02:22;;;;;;;19.85;10.10;;;3.20;99.90;;;;;;5051590;28;20049;-78
2023/01/24 04:05:15;;;;;;;19.08;11.18;;;3.20;99.90;;;;;;5049114;28;20060;-82
2023/01/24 04:08:01;;;;;;;19.08;11.05;;;3.20;99.90;;;;;;5035738;28;20152;-82
2023/01/24 04:10:48;;;;;;;19.10;9.15;;;3.20;99.90;;;;;;5051571;28;20074;-84
2023/01/24 04:13:34;;;;;;;16.02;9.13;;;3.20;99.90;;;;;;5049876;28;20559;-83
2023/01/24 04:16:20;;;;;;;18.45;9.70;;;3.20;99.90;;;;;;5051044;28;20409;-79
2023/01/24 04:19:06;;;;;;;19.35;9.32;;;3.20;99.90;;;;;;5054002;28;20080;-85
2023/01/24 04:21:52;;;;;;;16.05;8.10;;;3.20;99.90;;;;;;5050175;28;20045;-84
2023/01/24 04:24:38;;;;;;;15.07;8.20;;;3.20;99.90;;;;;;5051205;28;20076;-81
2023/01/24 04:27:24;;;;;;;14.82;8.30;;;3.20;99.90;;;;;;5050827;28;20053;-84
2023/01/24 04:30:13;;;;;;;14.50;6.90;;;3.20;99.90;;;;;;5049759;28;20055;-84
2023/01/24 04:32:59;;;;;;;9.75;5.15;;;3.20;99.90;;;;;;5049358;28;20111;-79
2023/01/24 04:35:45;;;;;;;14.23;7.47;;;3.20;99.90;;;;;;5053335;28;20072;-79
2023/01/24 04:38:31;;;;;;;12.18;6.80;;;3.20;99.90;;;;;;5032272;28;20151;-79
2023/01/24 04:41:17;;;;;;;14.43;7.20;;;3.20;99.90;;;;;;5032427;28;20501;-79
2023/01/24 04:44:04;;;;;;;12.57;6.85;;;3.20;99.90;;;;;;5035082;28;20049;-82
2023/01/24 04:46:50;;;;;;;14.40;8.02;;;3.20;99.90;;;;;;5050927;28;20448;-79
2023/01/24 04:49:36;;;;;;;16.23;8.02;;;3.20;99.90;;;;;;5050664;28;20041;-79
2023/01/24 04:52:22;;;;;;;11.73;6.32;;;3.20;99.90;;;;;;5049797;28;20088;-79
2023/01/24 04:55:08;;;;;;;16.67;7.88;;;3.20;99.90;;;;;;5050431;28;20493;-80
2023/01/24 04:57:54;;;;;;;15.07;7.82;;;3.20;99.90;;;;;;5051719;28;20064;-80
2023/01/24 05:00:40;;;;;;;12.77;7.18;;;3.20;99.90;;;;;;5033123;28;20142;-81
2023/01/24 05:03:27;;;;;;;11.48;6.82;;;3.20;99.90;;;;;;5051199;28;20063;-82
2023/01/24 05:06:13;;;;;;;13.68;7.57;;;3.20;99.90;;;;;;5054500;28;20147;-79
2023/01/24 05:09:00;;;;;;;13.25;7.38;;;3.20;99.90;;;;;;5054097;28;20068;-79
2023/01/24 05:11:46;;;;;;;13.18;7.05;;;3.20;99.90;;;;;;5053872;28;20172;-82
2023/01/24 05:14:32;;;;;;;13.57;7.78;;;3.20;99.90;;;;;;5054537;28;20100;-79
2023/01/24 05:17:18;;;;;;;14.65;7.75;;;3.10;99.90;;;;;;5058559;28;20059;-82
2023/01/24 05:20:04;;;;;;;14.50;8.30;;;3.20;99.90;;;;;;5054413;28;20056;-84
2023/01/24 05:22:50;;;;;;;15.93;8.98;;;3.20;99.90;;;;;;5054656;28;20057;-80
2023/01/24 05:25:36;;;;;;;16.02;8.77;;;3.10;99.90;;;;;;5039572;28;20110;-79
2023/01/24 05:28:23;;;;;;;15.70;8.40;;;3.10;99.90;;;;;;5053063;28;20118;-79
2023/01/24 05:31:09;;;;;;;17.75;9.65;;;3.20;99.90;;;;;;5053343;28;20110;-82
2023/01/24 05:33:55;;;;;;;15.48;9.23;;;3.20;99.90;;;;;;5053313;28;20378;-79
2023/01/24 05:36:41;;;;;;;15.57;9.60;;;3.10;99.90;;;;;;5041146;28;20479;-80
2023/01/24 05:39:27;;;;;;;17.52;9.50;;;3.20;99.90;;;;;;5053270;28;20099;-77
2023/01/24 05:42:13;;;;;;;22.90;10.35;;;3.20;99.90;;;;;;5054620;28;20060;-80
2023/01/24 05:44:59;;;;;;;16.95;9.52;;;3.20;99.90;;;;;;5052207;28;20051;-80
2023/01/24 05:47:45;;;;;;;18.50;9.80;;;3.20;99.90;;;;;;5053380;28;20107;-77
2023/01/24 05:50:31;;;;;;;16.55;9.65;;;3.10;99.90;;;;;;5053518;28;20053;-78
2023/01/24 05:53:18;;;;;;;14.00;8.18;;;3.20;99.90;;;;;;5053083;28;20057;-79
2023/01/24 05:56:07;;;;;;;16.02;9.05;;;3.20;99.90;;;;;;5056383;28;20056;-77
2023/01/24 05:58:53;;;;;;;16.17;9.25;;;3.10;99.90;;;;;;5053673;28;20045;-78
2023/01/24 06:01:39;;;;;;;15.68;9.38;;;3.10;99.90;;;;;;5053706;28;20053;-83
2023/01/24 06:04:25;;;;;;;16.05;9.15;;;3.10;99.90;;;;;;5052732;28;20095;-80
2023/01/24 06:07:11;;;;;;;17.38;9.02;;;3.10;99.90;;;;;;5034747;28;20077;-79
2023/01/24 06:09:57;;;;;;;20.08;10.05;;;3.10;99.90;;;;;;5053205;28;20500;-80
2023/01/24 06:12:43;;;;;;;17.55;9.75;;;3.10;99.90;;;;;;5051994;28;20049;-85
2023/01/24 06:15:29;;;;;;;19.50;10.55;;;3.10;99.90;;;;;;5054599;28;20045;-78
2023/01/24 06:18:18;;;;;;;20.60;11.45;;;3.10;99.90;;;;;;5020588;28;20061;-78
2023/01/24 06:21:15;;;;;;;20.65;10.50;;;3.10;99.90;;;;;;5038099;28;20135;-80
2023/01/24 06:24:02;;;;;;;17.67;10.13;;;3.10;99.90;;;;;;5052582;28;20045;-81
2023/01/24 06:26:51;;;;;;;20.23;10.80;;;3.10;99.90;;;;;;5035255;28;20055;-80
2023/01/24 06:29:38;;;;;;;20.35;10.00;;;3.10;99.90;;;;;;5052624;28;20111;-79
2023/01/24 06:32:49;;;;;;;17.42;9.65;;;3.00;99.90;;;;;;5052555;28;20049;-77
2023/01/24 06:35:45;;;;;;;16.30;8.23;;;3.10;99.90;;;;;;5059014;28;20139;-80
2023/01/24 06:38:31;;;;;;;17.75;9.32;;;3.10;99.90;;;;;;5052327;28;20509;-79
2023/01/24 06:41:18;;;;;;;17.00;9.57;;;3.00;99.90;;;;;;5053762;28;20053;-78
2023/01/24 06:44:04;;;;;;;18.98;10.40;;;3.00;99.90;;;;;;5053527;28;20057;-80
2023/01/24 06:46:50;;;;;;;20.55;10.98;;;3.00;99.90;;;;;;5051949;28;20052;-79
2023/01/24 06:49:37;;;;;;;16.95;10.18;;;3.00;99.90;;;;;;5051531;28;20084;-84
2023/01/24 06:52:24;;;;;;;15.45;9.75;;;3.00;99.90;;;;;;5052970;28;20048;-83
2023/01/24 06:55:10;;;;;;;19.35;10.10;;;3.00;99.90;;;;;;5053115;28;20053;-80
2023/01/24 06:57:57;;;;;;;18.92;10.60;;;3.00;99.90;;;;;;5036123;28;20382;-77
2023/01/24 07:00:43;;;;;;;19.73;11.02;;;3.00;99.90;;;;;;5038132;28;20080;-78
2023/01/24 07:03:29;;;;;;;18.13;10.40;;;3.00;99.90;;;;;;5053279;28;20085;-81
2023/01/24 07:06:15;;;;;;;17.23;9.93;;;3.00;99.90;;;;;;5053171;28;20122;-78
2023/01/24 07:09:01;;;;;;;19.83;11.35;;;3.00;99.90;;;;;;5052063;28;20057;-79
2023/01/24 07:11:52;;;;;;;20.33;10.27;;;3.00;99.90;;;;;;5051234;28;20444;-83
2023/01/24 07:14:38;;;;;;;20.08;10.55;;;3.00;99.90;;;;;;5036533;28;20060;-82
2023/01/24 07:17:24;;;;;;;16.98;9.40;;;2.90;99.90;;;;;;5051327;28;20052;-80
2023/01/24 07:20:12;;;;;;;21.35;11.35;;;2.90;99.90;;;;;;5053494;28;20080;-81
2023/01/24 07:22:59;;;;;;;21.10;11.07;;;2.90;99.90;;;;;;5036588;28;20056;-82
2023/01/24 07:25:46;;;;;;;22.85;12.70;;;2.90;99.90;;;;;;5052352;28;20045;-82
2023/01/24 07:28:32;;;;;;;22.00;12.18;;;2.90;99.90;;;;;;5051065;28;20053;-78
2023/01/24 07:31:18;;;;;;;20.02;11.68;;;2.90;99.90;;;;;;5054760;28;20053;-84
2023/01/24 07:34:04;;;;;;;23.05;13.65;;;2.90;99.90;;;;;;5051707;28;20072;-80
2023/01/24 07:36:50;;;;;;;25.17;11.77;;;2.90;99.90;;;;;;5050590;28;20378;-80
2023/01/24 07:39:37;;;;;;;22.70;12.65;;;2.90;99.90;;;;;;5049594;28;20045;-82
2023/01/24 07:42:23;;;;;;;21.08;11.82;;;2.90;99.90;;;;;;5051044;28;20048;-80
2023/01/24 07:45:09;;;;;;;23.58;12.68;;;2.90;99.90;;;;;;5049745;28;20049;-81
2023/01/24 07:47:57;;;;;;;21.60;12.38;;;2.90;99.90;;;;;;5036664;28;20053;-81
2023/01/24 07:50:43;;;;;;;23.88;13.75;;;2.90;99.90;;;;;;5052076;28;20049;-78
2023/01/24 07:53:29;;;;;;;23.42;13.73;;;2.90;99.90;;;;;;5051305;28;20053;-81
2023/01/24 07:56:16;;;;;;;24.50;13.20;;;2.90;99.90;;;;;;5033685;28;20057;-82
2023/01/24 07:59:02;;;;;;;26.55;13.85;;;2.90;99.90;;;;;;5031185;28;20056;-81
2023/01/24 08:01:48;;;;;;;25.88;14.32;;;2.90;99.90;;;;;;5050337;28;20056;-82
2023/01/24 08:04:34;;;;;;;26.20;14.20;;;2.90;99.90;;;;;;5051308;28;20045;-77
2023/01/24 08:07:21;;;;;;;28.70;14.32;;;2.90;99.90;;;;;;5031913;28;20074;-80
2023/01/24 08:10:09;;;;;;;27.30;13.27;;;2.90;99.90;;;;;;5050702;28;20055;-80
2023/01/24 08:12:56;;;;;;;26.45;14.10;;;2.90;99.90;;;;;;5051103;28;20096;-78
2023/01/24 08:15:42;;;;;;;31.30;15.88;;;2.90;99.90;;;;;;5054759;28;20045;-78
2023/01/24 08:18:28;;;;;;;28.15;15.00;;;3.00;99.90;;;;;;5033104;28;20060;-80
2023/01/24 08:21:14;;;;;;;28.30;14.95;;;3.00;99.90;;;;;;5048835;28;20511;-77
2023/01/24 08:24:00;;;;;;;31.00;15.82;;;3.00;99.90;;;;;;5049971;28;20128;-84
2023/01/24 08:26:48;;;;;;;30.45;15.85;;;2.90;99.90;;;;;;5049127;28;20095;-80
2023/01/24 08:29:34;;;;;;;33.05;16.48;;;3.00;99.90;;;;;;5034971;28;20132;-78
2023/01/24 08:32:21;;;;;;;30.95;16.58;;;3.00;99.90;;;;;;5049115;28;20052;-82
2023/01/24 08:35:07;;;;;;;37.67;17.90;;;3.00;99.90;;;;;;5050273;28;20056;-84
2023/01/24 08:37:53;;;;;;;30.52;16.17;;;3.00;99.90;;;;;;5018546;28;20530;-81
2023/01/24 08:40:40;;;;;;;32.78;17.30;;;3.00;99.90;;;;;;5049072;28;20052;-80
2023/01/24 08:43:26;;;;;;;32.58;16.83;;;3.00;99.90;;;;;;5049177;28;20080;-78
2023/01/24 08:46:12;;;;;;;26.77;15.35;;;3.00;99.90;;;;;;5051118;28;20045;-83
2023/01/24 08:48:58;;;;;;;32.17;16.50;;;3.00;99.90;;;;;;5035804;28;20056;-80
2023/01/24 08:51:46;;;;;;;32.13;16.75;;;3.00;99.90;;;;;;5050486;28;20110;-78
2023/01/24 08:54:33;;;;;;;29.25;16.40;;;3.00;99.90;;;;;;5044552;28;20078;-80
2023/01/24 08:57:19;;;;;;;31.80;15.73;;;3.00;99.90;;;;;;5049618;28;20056;-83
2023/01/24 09:00:06;;;;;;;29.25;15.75;;;3.00;99.90;;;;;;5048605;28;20056;-84
2023/01/24 09:02:52;;;;;;;31.00;15.15;;;3.00;99.90;;;;;;5050348;28;20051;-80
2023/01/24 09:05:38;;;;;;;30.27;15.63;;;3.00;99.90;;;;;;5048729;28;20059;-80
2023/01/24 09:08:24;;;;;;;28.33;15.40;;;3.00;99.90;;;;;;5049796;28;20060;-82
2023/01/24 09:11:10;;;;;;;29.45;15.50;;;3.00;99.90;;;;;;5037434;28;20068;-81
2023/01/24 09:13:57;;;;;;;34.58;16.92;;;3.00;99.90;;;;;;5049709;28;20049;-80
2023/01/24 09:16:43;;;;;;;30.88;16.10;;;3.00;99.90;;;;;;5035773;28;20053;-79
2023/01/24 09:19:29;;;;;;;31.77;15.65;;;3.00;99.90;;;;;;5019684;28;20088;-78
2023/01/24 09:22:15;;;;;;;26.60;14.93;;;3.00;99.90;;;;;;5050723;28;20511;-79
2023/01/24 09:25:03;;;;;;;28.85;14.68;;;3.00;99.90;;;;;;5049852;28;20052;-78
2023/01/24 09:27:53;;;;;;;27.55;14.93;;;3.00;99.90;;;;;;5050250;28;20053;-77
2023/01/24 09:30:39;;;;;;;32.55;16.23;;;3.00;99.90;;;;;;5048057;28;20057;-78
2023/01/24 09:33:25;;;;;;;28.65;15.73;;;3.00;99.90;;;;;;5049794;28;20088;-78
2023/01/24 09:36:11;;;;;;;33.38;16.48;;;3.00;99.90;;;;;;5048415;28;20052;-79
2023/01/24 09:38:57;;;;;;;30.92;16.58;;;3.00;99.90;;;;;;5051698;28;20053;-78
2023/01/24 09:41:59;;;;;;;31.83;16.45;;;3.00;99.90;;;;;;5050269;28;20096;-79
2023/01/24 09:45:18;;;;;;;33.15;16.92;;;3.00;99.90;;;;;;5031372;28;20084;-78
2023/01/24 09:48:10;;;;;;;28.55;15.07;;;3.00;99.90;;;;;;5048899;28;20486;-77
2023/01/24 09:51:01;;;;;;;28.58;15.02;;;3.00;99.90;;;;;;5050938;28;20036;-78
2023/01/24 09:53:57;;;;;;;28.80;16.60;;;3.10;99.90;;;;;;5053568;28;20059;-78
2023/01/24 09:56:46;;;;;;;32.03;16.77;;;3.10;99.90;;;;;;5051845;28;20057;-79
2023/01/24 09:59:46;;;;;;;25.50;13.93;;;3.00;99.90;;;;;;5051562;28;20053;-77
2023/01/24 10:02:32;;;;;;;26.13;12.68;;;3.00;99.90;;;;;;5053717;28;20044;-77
2023/01/24 10:05:19;;;;;;;26.40;13.32;;;3.00;99.90;;;;;;5053819;28;20059;-81
2023/01/24 10:08:19;;;;;;;22.65;12.35;;;3.00;99.90;;;;;;5034717;28;20053;-78
2023/01/24 10:11:08;;;;;;;22.75;12.07;;;3.00;99.90;;;;;;5051170;28;20520;-79
2023/01/24 10:14:03;;;;;;;21.45;11.20;;;3.00;99.90;;;;;;5051539;28;20049;-79
2023/01/24 10:17:15;;;;;;;22.20;12.10;;;3.00;99.90;;;;;;5052769;28;20052;-83
2023/01/24 10:20:09;;;;;;;23.83;12.02;;;3.00;99.90;;;;;;5039364;28;20674;-78
2023/01/24 10:22:58;;;;;;;20.70;10.73;;;3.00;99.90;;;;;;5052532;28;20044;-79
2023/01/24 10:25:49;;;;;;;22.70;11.82;;;3.00;99.90;;;;;;5050980;28;20051;-77
2023/01/24 10:28:40;;;;;;;21.88;11.77;;;3.00;99.90;;;;;;5045100;28;20057;-81
2023/01/24 10:31:30;;;;;;;22.67;12.05;;;3.00;99.90;;;;;;5053128;28;20421;-79
2023/01/24 10:34:43;;;;;;;24.00;11.30;;;3.00;99.90;;;;;;5035919;28;20052;-79
2023/01/24 10:37:37;;;;;;;22.65;10.85;;;3.00;99.90;;;;;;5051998;28;20048;-78
2023/01/24 10:40:27;;;;;;;25.35;12.68;;;3.10;99.90;;;;;;5038638;28;20053;-77
2023/01/24 10:43:13;;;;;;;22.90;11.95;;;3.10;99.90;;;;;;5037501;28;20401;-79
2023/01/24 10:46:26;;;;;;;22.27;11.30;;;3.10;99.90;;;;;;5051290;28;20445;-79
2023/01/24 10:49:28;;;;;;;21.15;10.73;;;3.10;99.90;;;;;;5036853;28;20181;-80
2023/01/24 10:52:20;;;;;;;21.80;11.48;;;3.20;99.90;;;;;;5036435;28;20132;-79
2023/01/24 10:55:37;;;;;;;18.38;9.95;;;3.20;99.90;;;;;;5052914;28;20041;-78
2023/01/24 10:58:26;;;;;;;19.35;10.45;;;3.20;99.90;;;;;;5040425;28;20049;-84
2023/01/24 11:01:21;;;;;;;19.02;9.90;;;3.20;99.90;;;;;;5052824;28;20136;-81
2023/01/24 11:04:20;;;;;;;19.60;10.30;;;3.20;99.90;;;;;;5050845;28;20049;-83
2023/01/24 11:07:06;;;;;;;21.25;11.05;;;3.20;99.90;;;;;;5034509;28;20485;-85
2023/01/24 11:09:52;;;;;;;22.23;11.30;;;3.10;99.90;;;;;;5052304;28;20512;-77
2023/01/24 11:12:53;;;;;;;18.58;10.02;;;3.20;99.90;;;;;;5052332;28;20524;-76
2023/01/24 11:15:46;;;;;;;22.33;10.75;;;3.10;99.90;;;;;;5053577;28;20056;-79
2023/01/24 11:18:33;;;;;;;19.25;11.05;;;3.20;99.90;;;;;;5052284;28;20096;-83
2023/01/24 11:21:20;;;;;;;23.42;11.75;;;3.20;99.90;;;;;;5051674;28;20102;-77
2023/01/24 11:24:14;;;;;;;20.40;11.15;;;3.20;99.90;;;;;;5034304;28;20091;-78
2023/01/24 11:27:16;;;;;;;20.35;10.13;;;3.20;99.90;;;;;;5052573;28;20140;-81
2023/01/24 11:30:21;;;;;;;20.88;10.27;;;3.30;99.90;;;;;;5051249;28;20053;-77
2023/01/24 11:33:34;;;;;;;20.65;9.50;;;3.30;99.90;;;;;;5033638;28;20087;-80
2023/01/24 11:36:29;;;;;;;20.95;10.73;;;3.30;99.90;;;;;;5051464;28;20041;-77
2023/01/24 11:39:37;;;;;;;19.30;11.23;;;3.40;99.90;;;;;;5051637;28;20045;-81
2023/01/24 11:42:53;;;;;;;19.35;10.13;;;3.40;99.90;;;;;;5053089;28;20049;-80
2023/01/24 11:46:18;;;;;;;20.75;10.40;;;3.40;99.90;;;;;;5049145;28;20094;-80
2023/01/24 11:49:34;;;;;;;21.60;10.95;;;3.40;99.90;;;;;;5051060;28;20053;-80
2023/01/24 11:52:26;;;;;;;18.27;10.07;;;3.50;99.90;;;;;;5051221;28;20045;-81
2023/01/24 11:55:57;;;;;;;18.60;10.88;;;3.40;99.90;;;;;;5032023;28;20477;-80
2023/01/24 11:59:20;;;;;;;20.02;10.18;;;3.30;99.90;;;;;;5054655;28;20103;-79
2023/01/24 12:02:53;;;;;;;20.20;10.35;;;3.30;99.90;;;;;;5051239;28;20041;-83
2023/01/24 12:06:06;;;;;;;16.05;8.77;;;3.30;99.90;;;;;;5049213;28;20041;-78
2023/01/24 12:09:17;;;;;;;17.10;9.57;;;3.30;99.90;;;;;;5051073;28;20088;-79
2023/01/24 12:12:24;;;;;;;19.25;9.68;;;3.20;99.90;;;;;;5051491;28;20079;-80
2023/01/24 12:15:16;;;;;;;17.23;9.32;;;3.30;99.90;;;;;;5050426;28;20049;-79
2023/01/24 12:18:24;;;;;;;17.05;10.07;;;3.20;99.90;;;;;;5050950;28;20052;-77
2023/01/24 12:21:11;;;;;;;18.75;10.02;;;3.30;99.90;;;;;;5049618;28;20049;-78
2023/01/24 12:24:30;;;;;;;18.70;10.13;;;3.30;99.90;;;;;;5051093;28;20060;-78
2023/01/24 12:27:19;;;;;;;16.67;8.85;;;3.30;99.90;;;;;;5033894;28;20087;-80
2023/01/24 12:30:29;;;;;;;18.00;9.43;;;3.30;99.90;;;;;;5051430;28;20567;-80
2023/01/24 12:33:25;;;;;;;21.13;9.75;;;3.40;99.90;;;;;;5050725;28;20041;-78
2023/01/24 12:36:13;;;;;;;;;;;3.40;99.90;;;;;;5035827;28;20041;-79
2023/01/24 12:39:09;;;;;;;18.85;10.43;;;3.40;99.90;;;;;;5049921;28;19924;-79
2023/01/24 12:42:08;;;;;;;17.48;8.95;;;3.30;99.90;;;;;;5035890;28;20089;-79
2023/01/24 12:45:04;;;;;;;18.83;10.75;;;3.40;99.90;;;;;;5054719;28;20052;-84
2023/01/24 12:48:10;;;;;;;;;;;3.40;99.90;;;;;;5038079;28;20135;-84
2023/01/24 12:51:06;;;;;;;16.55;9.23;;;3.40;99.90;;;;;;5049840;28;19920;-79
2023/01/24 12:54:13;;;;;;;14.93;8.95;;;3.40;99.90;;;;;;5050876;28;20048;-80
2023/01/24 12:57:13;;;;;;;17.55;9.15;;;3.50;99.90;;;;;;5051837;28;20524;-80
2023/01/24 13:00:00;;;;;;;18.33;9.43;;;3.40;99.90;;;;;;5036927;28;20049;-79
2023/01/24 13:03:01;;;;;;;18.85;9.80;;;3.40;99.90;;;;;;5053005;28;20099;-80
2023/01/24 13:06:06;;;;;;;17.42;9.52;;;3.40;99.90;;;;;;5033957;28;20621;-79
2023/01/24 13:09:14;;;;;;;18.25;9.65;;;3.40;99.90;;;;;;5046570;28;20405;-79
2023/01/24 13:12:03;;;;;;;16.60;9.48;;;3.40;99.90;;;;;;5050575;28;20060;-79
2023/01/24 13:14:58;;;;;;;18.00;9.75;;;3.40;99.90;;;;;;5051553;28;20116;-79
2023/01/24 13:17:56;;;;;;;17.37;9.83;;;3.30;99.90;;;;;;5049955;28;20072;-80
2023/01/24 13:20:58;;;;;;;17.05;10.07;;;3.40;99.90;;;;;;5030572;28;20045;-79
2023/01/24 13:23:53;;;;;;;18.45;10.95;;;3.40;99.90;;;;;;5053933;28;20081;-80
2023/01/24 13:27:08;;;;;;;18.50;9.25;;;3.40;99.90;;;;;;5055519;28;20084;-80
2023/01/24 13:30:19;;;;;;;17.67;9.32;;;3.40;99.90;;;;;;5057594;28;20052;-80
2023/01/24 13:33:17;;;;;;;15.18;8.85;;;3.50;99.90;;;;;;5057252;28;20409;-80
2023/01/24 13:36:05;;;;;;;18.00;10.02;;;3.40;99.90;;;;;;5057056;28;20160;-80
2023/01/24 13:38:52;;;;;;;18.95;10.27;;;3.40;99.90;;;;;;5058999;28;20049;-85
2023/01/24 13:41:38;;;;;;;20.63;10.13;;;3.40;99.90;;;;;;5057495;28;20052;-79
2023/01/24 13:44:33;;;;;;;20.58;10.57;;;3.30;99.90;;;;;;5057708;28;20053;-84
2023/01/24 13:47:19;;;;;;;21.08;10.93;;;3.40;99.90;;;;;;5053545;28;20049;-84
2023/01/24 13:50:13;;;;;;;18.30;9.95;;;3.40;99.90;;;;;;5035579;28;20064;-84
2023/01/24 13:53:01;;;;;;;19.33;9.88;;;3.40;99.90;;;;;;5053946;28;20493;-79
2023/01/24 13:56:01;;;;;;;21.25;9.80;;;3.40;99.90;;;;;;5054086;28;20048;-83
2023/01/24 13:58:51;;;;;;;18.23;10.25;;;3.40;99.90;;;;;;5052786;28;20049;-83
2023/01/24 14:01:45;;;;;;;17.52;9.13;;;3.30;99.90;;;;;;5057122;28;20049;-85
2023/01/24 14:04:43;;;;;;;16.98;9.52;;;3.40;99.90;;;;;;5053338;28;20056;-79
2023/01/24 14:07:35;;;;;;;20.58;11.32;;;3.40;99.90;;;;;;5053667;28;20183;-85
2023/01/24 14:10:38;;;;;;;19.02;9.48;;;3.40;99.90;;;;;;5053436;28;20579;-81
2023/01/24 14:13:46;;;;;;;19.85;9.95;;;3.40;99.90;;;;;;5052095;28;20519;-85
2023/01/24 14:16:39;;;;;;;19.40;9.95;;;3.30;99.90;;;;;;5052139;28;20147;-85
2023/01/24 14:19:29;;;;;;;19.73;10.18;;;3.30;99.90;;;;;;5053715;28;20057;-78
2023/01/24 14:22:24;;;;;;;18.55;10.27;;;3.30;99.90;;;;;;5056746;28;20045;-81
2023/01/24 14:25:25;;;;;;;19.38;10.55;;;3.30;99.90;;;;;;5051863;28;20060;-81
2023/01/24 14:28:39;;;;;;;20.42;11.00;;;3.30;99.90;;;;;;5053114;28;20512;-77
2023/01/24 14:31:30;;;;;;;21.42;10.68;;;3.30;99.90;;;;;;5052238;28;20053;-82
2023/01/24 14:34:40;;;;;;;20.52;10.73;;;3.30;99.90;;;;;;5051587;28;20056;-81
2023/01/24 14:37:27;;;;;;;22.13;10.85;;;3.20;99.90;;;;;;5051631;28;20049;-78
2023/01/24 14:40:16;;;;;;;22.35;10.80;;;3.20;99.90;;;;;;5034417;28;20076;-83
2023/01/24 14:43:05;;;;;;;21.52;11.38;;;3.20;99.90;;;;;;5050789;28;20760;-82
2023/01/24 14:45:51;;;;;;;20.20;10.20;;;3.10;99.90;;;;;;5020066;28;20416;-79
2023/01/24 14:48:38;;;;;;;21.23;12.30;;;3.10;99.90;;;;;;5040072;28;20121;-78
2023/01/24 14:51:24;;;;;;;27.70;13.60;;;3.00;99.90;;;;;;5041186;28;20056;-78
2023/01/24 14:54:20;;;;;;;22.50;12.57;;;3.00;99.90;;;;;;5052250;28;20045;-79
2023/01/24 14:57:20;;;;;;;23.73;12.40;;;3.00;99.90;;;;;;5051301;28;20122;-80
2023/01/24 15:00:17;;;;;;;22.52;12.20;;;3.00;99.90;;;;;;5038372;28;20048;-79
2023/01/24 15:03:05;;;;;;;22.10;11.98;;;3.00;99.90;;;;;;5038778;28;20063;-81
2023/01/24 15:06:04;;;;;;;26.15;12.65;;;2.90;99.90;;;;;;5050673;28;20136;-79
2023/01/24 15:08:58;;;;;;;22.83;12.63;;;2.90;99.90;;;;;;5053544;28;20140;-77
2023/01/24 15:11:45;;;;;;;20.52;11.23;;;2.90;99.90;;;;;;5054757;28;20048;-78
2023/01/24 15:14:32;;;;;;;22.17;11.48;;;2.90;99.90;;;;;;5053479;28;20053;-82
2023/01/24 15:17:24;;;;;;;21.02;11.40;;;2.90;99.90;;;;;;5050211;28;20136;-80
2023/01/24 15:20:15;;;;;;;21.95;11.25;;;2.90;99.90;;;;;;5051272;28;20072;-82
2023/01/24 15:23:03;;;;;;;23.15;11.13;;;2.90;99.90;;;;;;5036294;28;20074;-78
2023/01/24 15:25:49;;;;;;;23.48;11.27;;;2.90;99.90;;;;;;5019626;28;20045;-81